EDT,Max TemperatureF,Mean TemperatureF,Min TemperatureF,Max Dew PointF,MeanDew PointF,Min DewpointF,Max Humidity, Mean Humidity, Min Humidity, Max Sea Level PressureIn, Mean Sea Level PressureIn, Min Sea Level PressureIn, Max VisibilityMiles, Mean VisibilityMiles, Min VisibilityMiles, Max Wind SpeedMPH, Mean Wind SpeedMPH, Max Gust SpeedMPH,PrecipitationIn, CloudCover, Events, WindDirDegrees
2012-9-1,91,83,75,81,78,72,100,87,55,30.09,30.06,30.02,10,10,4,8,3,,0.00,,,261
2012-9-2,91,82,73,81,75,72,100,88,52,30.07,30.01,29.95,10,10,3,10,1,,0.00,0,,125
2012-9-3,86,80,73,79,76,73,100,94,70,30.08,30.03,29.99,10,9,0,6,2,,0.00,4,,145
2012-9-4,89,82,75,79,76,73,100,86,59,30.04,29.99,29.93,10,9,2,9,4,,0.00,,,190
2012-9-5,89,81,73,79,76,73,100,88,62,29.95,29.90,29.84,10,10,4,12,7,18,0.00,,,206
2012-9-6,91,81,71,79,76,72,100,93,62,29.94,29.90,29.88,10,9,3,13,6,18,0.00,3,,204
2012-9-7,89,78,66,79,73,66,100,87,58,29.98,29.93,29.86,10,8,0,6,1,,0.00,2,,86
2012-9-8,89,80,71,79,76,72,100,89,62,29.87,29.79,29.70,10,7,2,17,5,29,0.00,8,,197
2012-9-9,80,71,62,70,65,57,100,85,47,29.95,29.87,29.80,10,10,10,12,3,17,0.00,3,,346
2012-9-10,78,68,57,63,58,54,100,79,44,30.17,30.06,29.96,10,10,10,13,2,20,0.00,2,,346
2012-9-11,78,66,53,63,57,54,100,79,44,30.31,30.26,30.17,10,10,10,7,1,,0.00,,,39
2012-9-12,80,65,50,63,57,50,100,81,44,30.39,30.34,30.31,10,10,10,8,1,,0.00,,,55
2012-9-13,82,68,53,70,63,54,100,87,58,30.37,30.32,30.27,10,10,10,10,2,,0.00,,,56
2012-9-14,84,72,60,72,66,61,100,83,51,30.28,30.21,30.14,10,10,0,7,1,,0.00,,,100
2012-9-15,78,68,57,68,62,54,100,82,44,30.18,30.15,30.12,10,10,7,13,2,20,0.00,,,352
2012-9-16,71,62,53,64,60,54,100,90,60,30.19,30.15,30.11,10,10,5,5,0,,0.00,,,300
2012-9-17,82,73,64,72,68,64,100,91,65,30.13,30.08,30.00,10,10,1,14,1,25,0.00,,,136
2012-9-18,84,76,69,77,73,70,100,95,70,29.99,29.83,29.74,10,9,1,20,8,38,0.00,,,178
2012-9-19,71,64,57,72,61,55,100,85,57,30.14,30.03,29.82,10,10,3,10,4,,0.00,8,,10
2012-9-20,75,65,55,63,59,55,100,86,57,30.17,30.12,30.07,10,10,10,8,1,,0.00,,,40
2012-9-21,80,66,53,68,62,54,100,83,54,30.10,30.05,30.00,10,10,7,6,1,,0.00,0,,192
2012-9-22,87,74,62,72,67,63,100,84,55,30.01,29.95,29.87,10,10,7,14,6,20,0.00,1,,193
2012-9-23,73,63,51,72,58,52,100,77,47,30.15,30.07,29.93,10,10,7,12,4,17,0.00,2,,3
2012-9-24,73,60,46,55,50,45,100,77,36,30.23,30.18,30.14,10,10,10,10,1,,0.00,1,,7
2012-9-25,78,62,46,59,53,46,100,76,39,30.26,30.22,30.15,10,10,10,9,2,,0.00,0,,197
2012-9-26,82,70,59,68,62,57,100,82,51,30.22,30.18,30.14,10,10,10,12,3,,0.00,0,,202
2012-9-27,87,74,62,66,61,54,100,72,31,30.19,30.14,30.08,10,10,10,9,4,,0.00,0,,179
2012-9-28,84,73,62,64,62,57,100,73,45,30.11,30.04,29.97,10,9,2,8,3,,0.00,1,,210
2012-9-29,68,64,59,64,59,55,94,88,77,30.02,29.98,29.93,10,8,2,8,2,,0.00,6,,356
2012-9-30,75,65,55,59,54,45,100,75,36,29.93,29.90,29.85,10,8,1,6,1,,0.00,4,,275